Brockway, Montana
Current Conditions -  °F | °C
As of 3:15 AM on Thursday 23 Oct 2014 (Local Time) from KGDV Reporting Station
Clear Clear  
Wind Chill: -3°   Ceiling: Unl
Heat Index:   Visibility: 10mi
Dew Point: -2°   Wind: 8mph
Humidity: 81%   Direction: 190°S
Pressure: 29.9"   Gusts: NA
Location:  47.3°N, 105.77°W
Report Text: KGDV 230915Z AUTO 19007KT 10SM CLR 01/M02 A2990 RMK AO1
Loading
Personal Weather Stations






























Interactive Weather Map
Tropical Storm Tracking
New forecast layout! Learn more

10-Day Weather Forecast

Advertisements
Track Severe Weather on mobile